sensor_id;sensor_type;location;lat;lon;timestamp;pressure;altitude;pressure_sealevel;temperature;humidity
79589;BME280;69067;51.930;4.492;2023-09-07T00:00:15;101887.09;;;29.72;42.54
79589;BME280;69067;51.930;4.492;2023-09-07T00:02:41;101881.88;;;29.64;42.70
79589;BME280;69067;51.930;4.492;2023-09-07T00:05:07;101885.84;;;29.68;43.03
79589;BME280;69067;51.930;4.492;2023-09-07T00:07:34;101856.59;;;29.55;43.00
79589;BME280;69067;51.930;4.492;2023-09-07T00:10:00;101857.00;;;29.59;42.67
79589;BME280;69067;51.930;4.492;2023-09-07T00:12:26;101871.53;;;29.66;42.82
79589;BME280;69067;51.930;4.492;2023-09-07T00:14:53;101877.84;;;29.66;42.50
79589;BME280;69067;51.930;4.492;2023-09-07T00:17:20;101853.63;;;29.57;42.62
79589;BME280;69067;51.930;4.492;2023-09-07T00:19:46;101873.19;;;29.67;42.31
79589;BME280;69067;51.930;4.492;2023-09-07T00:22:15;101870.44;;;29.67;42.11
79589;BME280;69067;51.930;4.492;2023-09-07T00:24:41;101855.09;;;29.59;42.54
79589;BME280;69067;51.930;4.492;2023-09-07T00:27:07;101873.19;;;29.67;42.70
79589;BME280;69067;51.930;4.492;2023-09-07T00:29:35;101873.19;;;29.67;42.68
79589;BME280;69067;51.930;4.492;2023-09-07T00:32:01;101867.75;;;29.60;42.94
79589;BME280;69067;51.930;4.492;2023-09-07T00:34:27;101869.22;;;29.63;42.99
79589;BME280;69067;51.930;4.492;2023-09-07T00:36:52;101871.13;;;29.62;42.90
79589;BME280;69067;51.930;4.492;2023-09-07T00:39:18;101854.06;;;29.54;42.87
79589;BME280;69067;51.930;4.492;2023-09-07T00:41:44;101862.50;;;29.59;42.57
79589;BME280;69067;51.930;4.492;2023-09-07T00:44:10;101857.66;;;29.54;42.56
79589;BME280;69067;51.930;4.492;2023-09-07T00:46:36;101864.78;;;29.62;42.70
79589;BME280;69067;51.930;4.492;2023-09-07T00:49:02;101857.44;;;29.56;42.50
79589;BME280;69067;51.930;4.492;2023-09-07T00:51:31;101859.75;;;29.59;42.73
79589;BME280;69067;51.930;4.492;2023-09-07T00:53:58;101853.00;;;29.55;42.65
79589;BME280;69067;51.930;4.492;2023-09-07T00:56:26;101863.09;;;29.61;42.92
79589;BME280;69067;51.930;4.492;2023-09-07T00:58:53;101855.31;;;29.58;42.97
79589;BME280;69067;51.930;4.492;2023-09-07T01:01:21;101856.75;;;29.60;42.47
79589;BME280;69067;51.930;4.492;2023-09-07T01:03:50;101859.91;;;29.64;42.29
79589;BME280;69067;51.930;4.492;2023-09-07T01:06:31;101838.91;;;29.51;42.91
79589;BME280;69067;51.930;4.492;2023-09-07T01:09:05;101842.66;;;29.57;42.92
79589;BME280;69067;51.930;4.492;2023-09-07T01:11:39;101835.31;;;29.51;42.83
79589;BME280;69067;51.930;4.492;2023-09-07T01:14:05;101839.28;;;29.55;43.06
79589;BME280;69067;51.930;4.492;2023-09-07T01:16:32;101850.69;;;29.58;43.50
79589;BME280;69067;51.930;4.492;2023-09-07T01:19:06;101829.00;;;29.50;43.03
79589;BME280;69067;51.930;4.492;2023-09-07T01:21:37;101843.56;;;29.51;42.71
79589;BME280;69067;51.930;4.492;2023-09-07T01:24:06;101833.63;;;29.50;42.99
79589;BME280;69067;51.930;4.492;2023-09-07T01:26:35;101833.63;;;29.50;42.66
79589;BME280;69067;51.930;4.492;2023-09-07T01:29:07;101824.56;;;29.49;43.60
79589;BME280;69067;51.930;4.492;2023-09-07T01:31:38;101845.19;;;29.58;42.76
79589;BME280;69067;51.930;4.492;2023-09-07T01:34:05;101831.34;;;29.47;43.02
79589;BME280;69067;51.930;4.492;2023-09-07T01:36:32;101849.84;;;29.58;42.78
79589;BME280;69067;51.930;4.492;2023-09-07T01:38:58;101831.75;;;29.50;42.84
79589;BME280;69067;51.930;4.492;2023-09-07T01:41:23;101833.63;;;29.50;43.25
79589;BME280;69067;51.930;4.492;2023-09-07T01:43:50;101828.59;;;29.47;42.62
79589;BME280;69067;51.930;4.492;2023-09-07T01:46:15;101834.06;;;29.47;42.51
79589;BME280;69067;51.930;4.492;2023-09-07T01:48:42;101843.72;;;29.56;43.06
79589;BME280;69067;51.930;4.492;2023-09-07T01:51:08;101838.50;;;29.48;43.12
79589;BME280;69067;51.930;4.492;2023-09-07T01:53:34;101840.19;;;29.49;43.66
79589;BME280;69067;51.930;4.492;2023-09-07T01:56:00;101834.69;;;29.49;42.77
79589;BME280;69067;51.930;4.492;2023-09-07T01:58:26;101850.91;;;29.57;42.72
79589;BME280;69067;51.930;4.492;2023-09-07T02:00:58;101851.53;;;29.59;42.74
79589;BME280;69067;51.930;4.492;2023-09-07T02:03:27;101840.41;;;29.47;42.68
79589;BME280;69067;51.930;4.492;2023-09-07T02:05:53;101853.00;;;29.55;42.53
79589;BME280;69067;51.930;4.492;2023-09-07T02:08:19;101839.81;;;29.45;42.92
79589;BME280;69067;51.930;4.492;2023-09-07T02:10:45;101849.06;;;29.51;42.67
79589;BME280;69067;51.930;4.492;2023-09-07T02:13:11;101849.06;;;29.51;43.32
79589;BME280;69067;51.930;4.492;2023-09-07T02:15:38;101846.31;;;29.51;43.34
79589;BME280;69067;51.930;4.492;2023-09-07T02:18:07;101838.97;;;29.45;42.98
79589;BME280;69067;51.930;4.492;2023-09-07T02:20:33;101829.28;;;29.42;43.25
79589;BME280;69067;51.930;4.492;2023-09-07T02:22:59;101837.44;;;29.49;42.43
79589;BME280;69067;51.930;4.492;2023-09-07T02:25:26;101834.53;;;29.44;43.16
79589;BME280;69067;51.930;4.492;2023-09-07T02:27:53;101833.47;;;29.45;43.18
79589;BME280;69067;51.930;4.492;2023-09-07T02:30:19;101839.81;;;29.45;43.13
79589;BME280;69067;51.930;4.492;2023-09-07T02:32:44;101848.00;;;29.52;42.91
79589;BME280;69067;51.930;4.492;2023-09-07T02:35:10;101834.13;;;29.40;42.58
79589;BME280;69067;51.930;4.492;2023-09-07T02:37:36;101838.13;;;29.44;43.05
79589;BME280;69067;51.930;4.492;2023-09-07T02:40:02;101846.75;;;29.48;42.51
79589;BME280;69067;51.930;4.492;2023-09-07T02:42:33;101836.44;;;29.43;42.82
79589;BME280;69067;51.930;4.492;2023-09-07T02:44:58;101850.94;;;29.50;43.33
79589;BME280;69067;51.930;4.492;2023-09-07T02:47:24;101838.97;;;29.45;42.76
79589;BME280;69067;51.930;4.492;2023-09-07T02:49:50;101846.38;;;29.44;42.87
79589;BME280;69067;51.930;4.492;2023-09-07T02:52:16;101830.78;;;29.38;42.25
79589;BME280;69067;51.930;4.492;2023-09-07T02:54:42;101843.16;;;29.47;42.97
79589;BME280;69067;51.930;4.492;2023-09-07T02:57:07;101830.78;;;29.38;42.69
79589;BME280;69067;51.930;4.492;2023-09-07T02:59:33;101851.38;;;29.47;42.57
79589;BME280;69067;51.930;4.492;2023-09-07T03:01:59;101831.63;;;29.39;42.80
79589;BME280;69067;51.930;4.492;2023-09-07T03:04:25;101834.97;;;29.41;42.45
79589;BME280;69067;51.930;4.492;2023-09-07T03:06:51;101837.50;;;29.42;43.30
79589;BME280;69067;51.930;4.492;2023-09-07T03:09:19;101836.28;;;29.38;43.02
79589;BME280;69067;51.930;4.492;2023-09-07T03:11:45;101824.91;;;29.34;43.29
79589;BME280;69067;51.930;4.492;2023-09-07T03:14:11;101840.09;;;29.37;42.95
79589;BME280;69067;51.930;4.492;2023-09-07T03:16:37;101851.84;;;29.44;42.94
79589;BME280;69067;51.930;4.492;2023-09-07T03:19:04;101836.72;;;29.35;43.24
79589;BME280;69067;51.930;4.492;2023-09-07T03:21:30;101836.72;;;29.35;42.59
79589;BME280;69067;51.930;4.492;2023-09-07T03:23:58;101825.31;;;29.31;43.00
79589;BME280;69067;51.930;4.492;2023-09-07T03:26:24;101847.63;;;29.42;42.94
79589;BME280;69067;51.930;4.492;2023-09-07T03:28:50;101840.94;;;29.38;43.09
79589;BME280;69067;51.930;4.492;2023-09-07T03:31:17;101833.31;;;29.33;42.73
79589;BME280;69067;51.930;4.492;2023-09-07T03:33:43;101845.09;;;29.40;43.25
79589;BME280;69067;51.930;4.492;2023-09-07T03:36:08;101821.97;;;29.29;42.62
79589;BME280;69067;51.930;4.492;2023-09-07T03:38:36;101836.31;;;29.31;42.65
79589;BME280;69067;51.930;4.492;2023-09-07T03:41:02;101826.81;;;29.27;43.22
79589;BME280;69067;51.930;4.492;2023-09-07T03:43:27;101847.47;;;29.36;43.21
79589;BME280;69067;51.930;4.492;2023-09-07T03:45:53;101838.63;;;29.34;42.97
79589;BME280;69067;51.930;4.492;2023-09-07T03:48:19;101827.88;;;29.26;43.53
79589;BME280;69067;51.930;4.492;2023-09-07T03:50:45;101830.63;;;29.26;42.54
79589;BME280;69067;51.930;4.492;2023-09-07T03:53:11;101824.75;;;29.23;43.28
79589;BME280;69067;51.930;4.492;2023-09-07T03:55:43;101838.84;;;29.26;42.75
79589;BME280;69067;51.930;4.492;2023-09-07T03:58:10;101851.09;;;29.30;43.34
79589;BME280;69067;51.930;4.492;2023-09-07T04:00:40;101840.53;;;29.34;42.67
79589;BME280;69067;51.930;4.492;2023-09-07T04:03:07;101845.19;;;29.27;43.19
79589;BME280;69067;51.930;4.492;2023-09-07T04:05:33;101859.91;;;29.32;43.13
79589;BME280;69067;51.930;4.492;2023-09-07T04:07:59;101867.31;;;29.32;42.96
79589;BME280;69067;51.930;4.492;2023-09-07T04:10:26;101857.00;;;29.27;43.07
79589;BME280;69067;51.930;4.492;2023-09-07T04:12:52;101846.91;;;29.21;42.88
79589;BME280;69067;51.930;4.492;2023-09-07T04:15:18;101846.06;;;29.21;43.28
79589;BME280;69067;51.930;4.492;2023-09-07T04:17:43;101845.22;;;29.20;43.03
79589;BME280;69067;51.930;4.492;2023-09-07T04:20:10;101836.38;;;29.18;43.16
79589;BME280;69067;51.930;4.492;2023-09-07T04:22:39;101851.72;;;29.26;42.92
79589;BME280;69067;51.930;4.492;2023-09-07T04:25:06;101855.31;;;29.26;43.35
79589;BME280;69067;51.930;4.492;2023-09-07T04:27:32;101847.53;;;29.23;43.01
79589;BME280;69067;51.930;4.492;2023-09-07T04:29:58;101857.63;;;29.29;43.30
79589;BME280;69067;51.930;4.492;2023-09-07T04:32:23;101858.53;;;29.23;42.83
79589;BME280;69067;51.930;4.492;2023-09-07T04:34:56;101854.31;;;29.21;43.18
79589;BME280;69067;51.930;4.492;2023-09-07T04:37:22;101861.25;;;29.23;42.60
79589;BME280;69067;51.930;4.492;2023-09-07T04:39:52;101867.13;;;29.27;42.72
79589;BME280;69067;51.930;4.492;2023-09-07T04:42:19;101854.09;;;29.22;42.36
79589;BME280;69067;51.930;4.492;2023-09-07T04:44:46;101848.66;;;29.16;43.15
79589;BME280;69067;51.930;4.492;2023-09-07T04:47:13;101847.81;;;29.15;43.02
79589;BME280;69067;51.930;4.492;2023-09-07T04:49:41;101852.84;;;29.18;43.15
79589;BME280;69067;51.930;4.492;2023-09-07T04:52:07;101857.03;;;29.21;42.63
79589;BME280;69067;51.930;4.492;2023-09-07T04:54:34;101847.19;;;29.13;42.76
79589;BME280;69067;51.930;4.492;2023-09-07T04:57:00;101862.75;;;29.19;43.27
79589;BME280;69067;51.930;4.492;2023-09-07T04:59:26;101859.63;;;29.16;43.32
79589;BME280;69067;51.930;4.492;2023-09-07T05:01:52;101855.41;;;29.13;42.63
79589;BME280;69067;51.930;4.492;2023-09-07T05:04:18;101857.31;;;29.13;42.32
79589;BME280;69067;51.930;4.492;2023-09-07T05:06:43;101864.25;;;29.15;42.70
79589;BME280;69067;51.930;4.492;2023-09-07T05:09:09;101867.00;;;29.15;43.17
79589;BME280;69067;51.930;4.492;2023-09-07T05:11:35;101872.72;;;29.14;43.27
79589;BME280;69067;51.930;4.492;2023-09-07T05:14:01;101865.78;;;29.11;43.04
79589;BME280;69067;51.930;4.492;2023-09-07T05:16:28;101882.84;;;29.13;42.88
79589;BME280;69067;51.930;4.492;2023-09-07T05:18:54;101869.16;;;29.07;43.09
79589;BME280;69067;51.930;4.492;2023-09-07T05:21:19;101871.06;;;29.06;43.03
79589;BME280;69067;51.930;4.492;2023-09-07T05:23:46;101887.91;;;29.16;42.54
79589;BME280;69067;51.930;4.492;2023-09-07T05:26:12;101875.28;;;29.09;42.59
79589;BME280;69067;51.930;4.492;2023-09-07T05:28:40;101886.22;;;29.15;43.11
79589;BME280;69067;51.930;4.492;2023-09-07T05:31:08;101860.94;;;29.07;42.81
79589;BME280;69067;51.930;4.492;2023-09-07T05:33:34;101877.56;;;29.12;42.54
79589;BME280;69067;51.930;4.492;2023-09-07T05:36:00;101874.44;;;29.08;42.95
79589;BME280;69067;51.930;4.492;2023-09-07T05:38:27;101865.19;;;29.03;43.04
79589;BME280;69067;51.930;4.492;2023-09-07T05:40:53;101878.25;;;29.07;42.97
79589;BME280;69067;51.930;4.492;2023-09-07T05:43:20;101892.13;;;29.12;42.57
79589;BME280;69067;51.930;4.492;2023-09-07T05:45:46;101870.91;;;29.01;42.67
79589;BME280;69067;51.930;4.492;2023-09-07T05:48:13;101884.13;;;29.11;42.57
79589;BME280;69067;51.930;4.492;2023-09-07T05:50:40;101889.63;;;29.11;42.82
79589;BME280;69067;51.930;4.492;2023-09-07T05:53:06;101876.34;;;29.08;43.14
79589;BME280;69067;51.930;4.492;2023-09-07T05:55:32;101885.63;;;29.07;42.72
79589;BME280;69067;51.930;4.492;2023-09-07T05:57:58;101878.69;;;29.04;43.04
79589;BME280;69067;51.930;4.492;2023-09-07T06:00:25;101887.94;;;29.10;42.97
79589;BME280;69067;51.930;4.492;2023-09-07T06:02:51;101878.69;;;29.04;42.76
79589;BME280;69067;51.930;4.492;2023-09-07T06:05:18;101894.47;;;29.09;42.63
79589;BME280;69067;51.930;4.492;2023-09-07T06:07:44;101891.75;;;29.09;42.55
79589;BME280;69067;51.930;4.492;2023-09-07T06:10:10;101879.53;;;28.98;42.41
79589;BME280;69067;51.930;4.492;2023-09-07T06:12:36;101901.03;;;29.08;42.61
79589;BME280;69067;51.930;4.492;2023-09-07T06:15:03;101892.41;;;29.04;42.89
79589;BME280;69067;51.930;4.492;2023-09-07T06:17:29;101896.22;;;29.03;42.85
79589;BME280;69067;51.930;4.492;2023-09-07T06:19:56;101885.50;;;28.95;43.03
79589;BME280;69067;51.930;4.492;2023-09-07T06:22:22;101904.44;;;29.03;42.41
79589;BME280;69067;51.930;4.492;2023-09-07T06:24:48;101905.06;;;28.98;42.75
79589;BME280;69067;51.930;4.492;2023-09-07T06:27:14;101908.88;;;28.97;42.92
79589;BME280;69067;51.930;4.492;2023-09-07T06:29:40;101903.38;;;28.97;42.61
79589;BME280;69067;51.930;4.492;2023-09-07T06:32:06;101907.59;;;29.00;42.69
79589;BME280;69067;51.930;4.492;2023-09-07T06:34:32;101895.16;;;28.97;42.95
79589;BME280;69067;51.930;4.492;2023-09-07T06:36:58;101916.69;;;29.01;42.64
79589;BME280;69067;51.930;4.492;2023-09-07T06:39:23;101914.13;;;28.99;42.87
79589;BME280;69067;51.930;4.492;2023-09-07T06:41:49;101895.19;;;28.91;42.84
79589;BME280;69067;51.930;4.492;2023-09-07T06:44:15;101913.31;;;28.98;43.08
79589;BME280;69067;51.930;4.492;2023-09-07T06:46:41;101892.69;;;28.89;43.21
79589;BME280;69067;51.930;4.492;2023-09-07T06:49:07;101919.03;;;28.97;43.01
79589;BME280;69067;51.930;4.492;2023-09-07T06:51:33;101916.88;;;28.99;42.68
79589;BME280;69067;51.930;4.492;2023-09-07T06:53:59;101909.13;;;28.96;42.85
79589;BME280;69067;51.930;4.492;2023-09-07T06:56:25;101901.97;;;28.88;42.98
79589;BME280;69067;51.930;4.492;2023-09-07T06:58:52;101907.84;;;28.92;42.57
79589;BME280;69067;51.930;4.492;2023-09-07T07:01:19;101902.41;;;28.85;42.93
79589;BME280;69067;51.930;4.492;2023-09-07T07:03:45;101901.56;;;28.85;42.66
79589;BME280;69067;51.930;4.492;2023-09-07T07:06:11;101916.91;;;28.92;42.91
79589;BME280;69067;51.930;4.492;2023-09-07T07:08:36;101919.44;;;28.94;42.64
79589;BME280;69067;51.930;4.492;2023-09-07T07:11:02;101920.09;;;28.96;42.48
79589;BME280;69067;51.930;4.492;2023-09-07T07:13:28;101916.53;;;28.89;43.00
79589;BME280;69067;51.930;4.492;2023-09-07T07:15:54;101918.41;;;28.95;42.79
79589;BME280;69067;51.930;4.492;2023-09-07T07:18:20;101922.19;;;28.94;42.96
79589;BME280;69067;51.930;4.492;2023-09-07T07:20:46;101915.06;;;28.86;42.71
79589;BME280;69067;51.930;4.492;2023-09-07T07:23:12;101896.09;;;28.78;42.63
79589;BME280;69067;51.930;4.492;2023-09-07T07:25:38;101916.91;;;28.92;42.80
79589;BME280;69067;51.930;4.492;2023-09-07T07:28:05;101895.06;;;28.79;42.93
79589;BME280;69067;51.930;4.492;2023-09-07T07:30:36;101907.66;;;28.87;43.01
79589;BME280;69067;51.930;4.492;2023-09-07T07:33:04;101903.25;;;28.86;42.87
79589;BME280;69067;51.930;4.492;2023-09-07T07:35:31;101887.66;;;28.80;42.61
79589;BME280;69067;51.930;4.492;2023-09-07T07:37:57;101892.09;;;28.81;42.49
79589;BME280;69067;51.930;4.492;2023-09-07T07:40:23;101887.66;;;28.80;42.54
79589;BME280;69067;51.930;4.492;2023-09-07T07:42:51;101906.63;;;28.88;42.51
79589;BME280;69067;51.930;4.492;2023-09-07T07:45:17;101884.28;;;28.78;42.00
79589;BME280;69067;51.930;4.492;2023-09-07T07:47:51;101883.88;;;28.81;42.53
79589;BME280;69067;51.930;4.492;2023-09-07T07:50:18;101885.56;;;28.82;42.36
79589;BME280;69067;51.930;4.492;2023-09-07T07:52:45;101893.53;;;28.90;42.62
79589;BME280;69067;51.930;4.492;2023-09-07T07:55:11;101896.69;;;28.87;41.99
79589;BME280;69067;51.930;4.492;2023-09-07T07:57:38;101882.19;;;28.80;42.37
79589;BME280;69067;51.930;4.492;2023-09-07T08:00:05;101879.88;;;28.77;42.70
79589;BME280;69067;51.930;4.492;2023-09-07T08:02:32;101880.94;;;28.76;42.18
79589;BME280;69067;51.930;4.492;2023-09-07T08:04:58;101888.91;;;28.84;42.27
79589;BME280;69067;51.930;4.492;2023-09-07T08:07:25;101884.28;;;28.78;42.65
79589;BME280;69067;51.930;4.492;2023-09-07T08:09:52;101883.44;;;28.77;42.03
79589;BME280;69067;51.930;4.492;2023-09-07T08:12:19;101872.72;;;28.76;42.60
79589;BME280;69067;51.930;4.492;2023-09-07T08:14:44;101880.50;;;28.79;42.37
79589;BME280;69067;51.930;4.492;2023-09-07T08:17:10;101889.53;;;28.86;42.26
79589;BME280;69067;51.930;4.492;2023-09-07T08:19:36;101886.78;;;28.86;42.44
79589;BME280;69067;51.930;4.492;2023-09-07T08:22:04;101870.59;;;28.78;42.56
79589;BME280;69067;51.930;4.492;2023-09-07T08:24:31;101880.47;;;28.85;42.18
79589;BME280;69067;51.930;4.492;2023-09-07T08:26:57;101868.91;;;28.83;42.47
79589;BME280;69067;51.930;4.492;2023-09-07T08:29:26;101878.78;;;28.84;42.00
79589;BME280;69067;51.930;4.492;2023-09-07T08:31:55;101864.47;;;28.82;42.65
79589;BME280;69067;51.930;4.492;2023-09-07T08:34:22;101865.72;;;28.80;42.66
79589;BME280;69067;51.930;4.492;2023-09-07T08:36:49;101856.88;;;28.78;42.59
79589;BME280;69067;51.930;4.492;2023-09-07T08:39:16;101875.41;;;28.89;41.92
79589;BME280;69067;51.930;4.492;2023-09-07T08:41:43;101880.69;;;28.84;42.24
79589;BME280;69067;51.930;4.492;2023-09-07T08:44:11;101866.16;;;28.77;42.38
79589;BME280;69067;51.930;4.492;2023-09-07T08:46:38;101890.16;;;28.88;42.14
79589;BME280;69067;51.930;4.492;2023-09-07T08:49:04;101862.38;;;28.78;42.32
79589;BME280;69067;51.930;4.492;2023-09-07T08:51:31;101861.09;;;28.80;42.08
79589;BME280;69067;51.930;4.492;2023-09-07T08:54:00;101875.63;;;28.87;42.42
79589;BME280;69067;51.930;4.492;2023-09-07T08:56:26;101871.41;;;28.85;42.02
79589;BME280;69067;51.930;4.492;2023-09-07T08:58:52;101855.19;;;28.77;42.69
79589;BME280;69067;51.930;4.492;2023-09-07T09:01:18;101844.22;;;28.77;42.51
79589;BME280;69067;51.930;4.492;2023-09-07T09:03:51;101844.22;;;28.77;42.74
79589;BME280;69067;51.930;4.492;2023-09-07T09:06:20;101874.56;;;28.88;42.83
79589;BME280;69067;51.930;4.492;2023-09-07T09:08:56;101866.53;;;28.87;42.50
79589;BME280;69067;51.930;4.492;2023-09-07T09:11:24;101858.09;;;28.88;42.38
79589;BME280;69067;51.930;4.492;2023-09-07T09:13:53;101854.94;;;28.85;43.00
79589;BME280;69067;51.930;4.492;2023-09-07T09:16:20;101860.66;;;28.83;42.31
79589;BME280;69067;51.930;4.492;2023-09-07T09:18:59;101865.28;;;28.89;42.74
79589;BME280;69067;51.930;4.492;2023-09-07T09:21:26;101849.28;;;28.80;42.37
79589;BME280;69067;51.930;4.492;2023-09-07T09:23:55;101852.66;;;28.82;42.03
79589;BME280;69067;51.930;4.492;2023-09-07T09:26:22;101853.88;;;28.86;42.62
79589;BME280;69067;51.930;4.492;2023-09-07T09:28:49;101842.13;;;28.79;43.41
79589;BME280;69067;51.930;4.492;2023-09-07T09:31:18;101841.50;;;28.77;42.40
79589;BME280;69067;51.930;4.492;2023-09-07T09:33:49;101868.63;;;28.91;42.32
79589;BME280;69067;51.930;4.492;2023-09-07T09:36:18;101864.44;;;28.89;42.75
79589;BME280;69067;51.930;4.492;2023-09-07T09:38:51;101864.22;;;28.90;42.82
79589;BME280;69067;51.930;4.492;2023-09-07T09:41:20;101858.94;;;28.89;42.40
79589;BME280;69067;51.930;4.492;2023-09-07T09:43:48;101859.78;;;28.89;42.43
79589;BME280;69067;51.930;4.492;2023-09-07T09:46:17;101867.78;;;28.91;42.28
79589;BME280;69067;51.930;4.492;2023-09-07T09:48:44;101862.53;;;28.89;42.39
79589;BME280;69067;51.930;4.492;2023-09-07T09:51:10;101873.22;;;28.97;42.66
79589;BME280;69067;51.930;4.492;2023-09-07T09:53:37;101864.81;;;28.92;42.47
79589;BME280;69067;51.930;4.492;2023-09-07T09:56:03;101874.53;;;28.95;42.74
79589;BME280;69067;51.930;4.492;2023-09-07T09:58:29;101849.25;;;28.86;42.61
79589;BME280;69067;51.930;4.492;2023-09-07T10:00:57;101867.97;;;28.96;42.24
79589;BME280;69067;51.930;4.492;2023-09-07T10:03:31;101838.06;;;28.88;42.23
79589;BME280;69067;51.930;4.492;2023-09-07T10:06:12;101843.56;;;28.88;42.42
79589;BME280;69067;51.930;4.492;2023-09-07T10:09:06;101850.06;;;28.93;42.21
79589;BME280;69067;51.930;4.492;2023-09-07T10:11:34;101836.16;;;28.88;42.60
79589;BME280;69067;51.930;4.492;2023-09-07T10:14:07;101859.75;;;28.96;43.02
79589;BME280;69067;51.930;4.492;2023-09-07T10:16:50;101851.06;;;28.99;42.04
79589;BME280;69067;51.930;4.492;2023-09-07T10:19:25;101839.94;;;28.94;42.22
79589;BME280;69067;51.930;4.492;2023-09-07T10:21:55;101836.34;;;28.93;42.49
79589;BME280;69067;51.930;4.492;2023-09-07T10:24:30;101848.78;;;28.96;42.47
79589;BME280;69067;51.930;4.492;2023-09-07T10:27:03;101834.88;;;28.91;42.36
79589;BME280;69067;51.930;4.492;2023-09-07T10:29:51;101838.03;;;28.94;42.43
79589;BME280;69067;51.930;4.492;2023-09-07T10:32:20;101844.97;;;28.97;42.62
79589;BME280;69067;51.930;4.492;2023-09-07T10:34:46;101847.06;;;29.02;43.25
79589;BME280;69067;51.930;4.492;2023-09-07T10:37:14;101841.63;;;28.95;42.61
79589;BME280;69067;51.930;4.492;2023-09-07T10:39:40;101836.34;;;28.93;42.71
79589;BME280;69067;51.930;4.492;2023-09-07T10:42:25;101835.66;;;28.98;42.76
79589;BME280;69067;51.930;4.492;2023-09-07T10:44:52;101841.34;;;29.03;42.53
79589;BME280;69067;51.930;4.492;2023-09-07T10:47:19;101840.31;;;29.04;42.31
79589;BME280;69067;51.930;4.492;2023-09-07T10:49:45;101833.16;;;28.96;42.38
79589;BME280;69067;51.930;4.492;2023-09-07T10:52:11;101830.44;;;28.96;42.08
79589;BME280;69067;51.930;4.492;2023-09-07T10:54:37;101835.03;;;29.03;42.11
79589;BME280;69067;51.930;4.492;2023-09-07T10:57:10;101829.75;;;29.01;42.07
79589;BME280;69067;51.930;4.492;2023-09-07T10:59:44;101827.00;;;29.01;42.37
79589;BME280;69067;51.930;4.492;2023-09-07T11:02:11;101823.66;;;28.99;41.99
79589;BME280;69067;51.930;4.492;2023-09-07T11:04:36;101820.91;;;28.99;42.33
79589;BME280;69067;51.930;4.492;2023-09-07T11:07:03;101832.03;;;29.11;42.17
79589;BME280;69067;51.930;4.492;2023-09-07T11:09:30;101811.78;;;29.05;42.17
79589;BME280;69067;51.930;4.492;2023-09-07T11:11:56;101820.00;;;29.05;41.75
79589;BME280;69067;51.930;4.492;2023-09-07T11:14:22;101806.94;;;29.07;41.91
79589;BME280;69067;51.930;4.492;2023-09-07T11:16:55;101804.03;;;29.02;41.97
79589;BME280;69067;51.930;4.492;2023-09-07T11:19:22;101803.75;;;29.10;42.32
79589;BME280;69067;51.930;4.492;2023-09-07T11:21:48;101802.69;;;29.11;41.98
79589;BME280;69067;51.930;4.492;2023-09-07T11:24:16;101797.22;;;29.11;42.15
79589;BME280;69067;51.930;4.492;2023-09-07T11:26:43;101805.59;;;29.16;41.74
79589;BME280;69067;51.930;4.492;2023-09-07T11:29:17;101791.09;;;29.09;42.03
79589;BME280;69067;51.930;4.492;2023-09-07T11:31:46;101791.25;;;29.14;41.82
79589;BME280;69067;51.930;4.492;2023-09-07T11:34:14;101783.50;;;29.11;42.00
79589;BME280;69067;51.930;4.492;2023-09-07T11:36:42;101789.34;;;29.15;41.70
79589;BME280;69067;51.930;4.492;2023-09-07T11:39:11;101794.16;;;29.19;41.66
79589;BME280;69067;51.930;4.492;2023-09-07T11:41:42;101788.31;;;29.16;41.47
79589;BME280;69067;51.930;4.492;2023-09-07T11:44:10;101779.66;;;29.12;41.68
79589;BME280;69067;51.930;4.492;2023-09-07T11:46:37;101775.47;;;29.10;40.90
79589;BME280;69067;51.930;4.492;2023-09-07T11:49:03;101780.28;;;29.14;40.88
79589;BME280;69067;51.930;4.492;2023-09-07T11:51:34;101779.22;;;29.15;40.80
79589;BME280;69067;51.930;4.492;2023-09-07T11:54:02;101779.41;;;29.20;41.10
79589;BME280;69067;51.930;4.492;2023-09-07T11:56:29;101777.50;;;29.21;41.17
79589;BME280;69067;51.930;4.492;2023-09-07T11:58:54;101772.47;;;29.18;40.80
79589;BME280;69067;51.930;4.492;2023-09-07T12:01:21;101762.16;;;29.13;41.36
79589;BME280;69067;51.930;4.492;2023-09-07T12:03:47;101789.25;;;29.28;41.63
79589;BME280;69067;51.930;4.492;2023-09-07T12:06:13;101772.22;;;29.19;41.67
79589;BME280;69067;51.930;4.492;2023-09-07T12:08:42;101769.22;;;29.27;41.80
79589;BME280;69067;51.930;4.492;2023-09-07T12:11:24;101754.31;;;29.17;41.76
79589;BME280;69067;51.930;4.492;2023-09-07T12:13:50;101754.06;;;29.18;40.94
79589;BME280;69067;51.930;4.492;2023-09-07T12:16:16;101758.44;;;29.26;41.22
79589;BME280;69067;51.930;4.492;2023-09-07T12:18:41;101746.47;;;29.20;41.52
79589;BME280;69067;51.930;4.492;2023-09-07T12:21:07;101755.50;;;29.27;40.80
79589;BME280;69067;51.930;4.492;2023-09-07T12:23:34;101741.41;;;29.24;41.26
79589;BME280;69067;51.930;4.492;2023-09-07T12:26:01;101757.31;;;29.33;41.35
79589;BME280;69067;51.930;4.492;2023-09-07T12:28:30;101760.31;;;29.32;42.64
79589;BME280;69067;51.930;4.492;2023-09-07T12:30:58;101734.59;;;29.26;42.06
79589;BME280;69067;51.930;4.492;2023-09-07T12:33:24;101735.84;;;29.30;42.27
79589;BME280;69067;51.930;4.492;2023-09-07T12:35:50;101738.38;;;29.32;42.68
79589;BME280;69067;51.930;4.492;2023-09-07T12:38:16;101742.97;;;29.38;42.76
79589;BME280;69067;51.930;4.492;2023-09-07T12:40:47;101741.09;;;29.39;42.44
79589;BME280;69067;51.930;4.492;2023-09-07T12:43:13;101735.59;;;29.39;42.72
79589;BME280;69067;51.930;4.492;2023-09-07T12:45:39;101733.28;;;29.35;42.07
79589;BME280;69067;51.930;4.492;2023-09-07T12:48:05;101742.66;;;29.46;42.44
79589;BME280;69067;51.930;4.492;2023-09-07T12:50:31;101732.00;;;29.38;41.99